sensor_id;sensor_type;location;lat;lon;timestamp;pressure;altitude;pressure_sealevel;temperature;humidity
74708;BME280;63360;50.104;8.074;2022-10-03T00:07:02;98024.44;;;9.70;100.00
74708;BME280;63360;50.104;8.074;2022-10-03T00:12:40;98024.88;;;9.77;100.00
74708;BME280;63360;50.104;8.074;2022-10-03T00:15:23;98021.56;;;9.71;100.00
74708;BME280;63360;50.104;8.074;2022-10-03T00:23:40;98030.56;;;9.55;100.00
74708;BME280;63360;50.104;8.074;2022-10-03T00:37:39;98036.53;;;9.32;100.00
74708;BME280;63360;50.104;8.074;2022-10-03T00:43:25;98041.53;;;9.29;100.00
74708;BME280;63360;50.104;8.074;2022-10-03T00:49:11;98041.13;;;9.40;100.00
74708;BME280;63360;50.104;8.074;2022-10-03T00:51:53;98041.06;;;9.45;100.00
74708;BME280;63360;50.104;8.074;2022-10-03T00:57:34;98052.00;;;9.42;100.00
74708;BME280;63360;50.104;8.074;2022-10-03T01:00:29;98056.06;;;9.53;100.00
74708;BME280;63360;50.104;8.074;2022-10-03T01:05:35;98047.34;;;9.44;100.00
74708;BME280;63360;50.104;8.074;2022-10-03T01:10:51;98062.03;;;9.54;100.00
74708;BME280;63360;50.104;8.074;2022-10-03T01:18:53;98070.72;;;9.44;100.00
74708;BME280;63360;50.104;8.074;2022-10-03T01:21:43;98060.53;;;9.48;100.00
74708;BME280;63360;50.104;8.074;2022-10-03T01:24:31;98068.78;;;9.55;100.00
74708;BME280;63360;50.104;8.074;2022-10-03T01:27:30;98077.91;;;9.52;100.00
74708;BME280;63360;50.104;8.074;2022-10-03T01:30:22;98063.66;;;9.45;100.00
74708;BME280;63360;50.104;8.074;2022-10-03T01:32:53;98076.06;;;9.53;100.00
74708;BME280;63360;50.104;8.074;2022-10-03T01:35:32;98070.19;;;9.42;100.00
74708;BME280;63360;50.104;8.074;2022-10-03T01:38:41;98077.66;;;9.49;100.00
74708;BME280;63360;50.104;8.074;2022-10-03T01:41:17;98076.09;;;9.48;100.00
74708;BME280;63360;50.104;8.074;2022-10-03T01:43:55;98081.84;;;9.45;100.00
74708;BME280;63360;50.104;8.074;2022-10-03T01:46:42;98078.81;;;9.38;100.00
74708;BME280;63360;50.104;8.074;2022-10-03T01:49:20;98079.84;;;9.37;100.00
74708;BME280;63360;50.104;8.074;2022-10-03T01:51:59;98087.03;;;9.45;100.00
74708;BME280;63360;50.104;8.074;2022-10-03T01:57:37;98082.25;;;9.57;100.00
74708;BME280;63360;50.104;8.074;2022-10-03T02:00:24;98075.84;;;9.49;100.00
74708;BME280;63360;50.104;8.074;2022-10-03T02:03:19;98083.81;;;9.58;100.00
74708;BME280;63360;50.104;8.074;2022-10-03T02:08:54;98088.78;;;9.54;100.00
74708;BME280;63360;50.104;8.074;2022-10-03T02:14:21;98083.22;;;9.37;100.00
74708;BME280;63360;50.104;8.074;2022-10-03T02:16:58;98077.00;;;9.38;100.00
74708;BME280;63360;50.104;8.074;2022-10-03T02:19:42;98084.22;;;9.41;100.00
74708;BME280;63360;50.104;8.074;2022-10-03T02:22:33;98079.81;;;9.42;100.00
74708;BME280;63360;50.104;8.074;2022-10-03T02:25:14;98072.06;;;9.37;100.00
74708;BME280;63360;50.104;8.074;2022-10-03T02:34:46;98075.63;;;9.46;100.00
74708;BME280;63360;50.104;8.074;2022-10-03T02:37:46;98073.63;;;9.38;100.00
74708;BME280;63360;50.104;8.074;2022-10-03T02:40:45;98077.94;;;9.47;100.00
74708;BME280;63360;50.104;8.074;2022-10-03T02:49:51;98081.75;;;9.31;100.00
74708;BME280;63360;50.104;8.074;2022-10-03T02:52:58;98081.22;;;9.29;100.00
74708;BME280;63360;50.104;8.074;2022-10-03T02:55:49;98077.41;;;9.22;100.00
74708;BME280;63360;50.104;8.074;2022-10-03T03:18:27;98115.91;;;9.09;100.00
74708;BME280;63360;50.104;8.074;2022-10-03T03:21:12;98113.53;;;9.18;100.00
74708;BME280;63360;50.104;8.074;2022-10-03T03:29:37;98111.81;;;9.03;100.00
74708;BME280;63360;50.104;8.074;2022-10-03T03:32:29;98111.22;;;9.11;100.00
74708;BME280;63360;50.104;8.074;2022-10-03T03:46:05;98121.88;;;9.10;100.00
74708;BME280;63360;50.104;8.074;2022-10-03T03:48:51;98116.53;;;8.96;100.00
74708;BME280;63360;50.104;8.074;2022-10-03T03:51:31;98124.00;;;9.03;100.00
74708;BME280;63360;50.104;8.074;2022-10-03T03:57:12;98128.38;;;9.07;100.00
74708;BME280;63360;50.104;8.074;2022-10-03T03:59:46;98127.63;;;9.07;100.00
74708;BME280;63360;50.104;8.074;2022-10-03T04:05:29;98107.22;;;8.90;100.00
74708;BME280;63360;50.104;8.074;2022-10-03T04:10:59;98127.72;;;8.92;100.00
74708;BME280;63360;50.104;8.074;2022-10-03T04:16:18;98134.16;;;8.99;100.00
74708;BME280;63360;50.104;8.074;2022-10-03T04:19:18;98136.75;;;8.99;100.00
74708;BME280;63360;50.104;8.074;2022-10-03T04:22:18;98138.78;;;9.02;100.00
74708;BME280;63360;50.104;8.074;2022-10-03T04:25:17;98131.66;;;8.84;100.00
74708;BME280;63360;50.104;8.074;2022-10-03T04:39:04;98151.09;;;8.87;100.00
74708;BME280;63360;50.104;8.074;2022-10-03T04:44:46;98147.72;;;8.86;100.00
74708;BME280;63360;50.104;8.074;2022-10-03T04:47:27;98143.31;;;8.87;100.00
74708;BME280;63360;50.104;8.074;2022-10-03T04:50:17;98142.03;;;8.84;100.00
74708;BME280;63360;50.104;8.074;2022-10-03T04:52:55;98138.19;;;8.77;100.00
74708;BME280;63360;50.104;8.074;2022-10-03T04:55:41;98149.59;;;8.81;100.00
74708;BME280;63360;50.104;8.074;2022-10-03T04:58:35;98147.53;;;8.78;100.00
74708;BME280;63360;50.104;8.074;2022-10-03T05:04:05;98148.34;;;8.68;100.00
74708;BME280;63360;50.104;8.074;2022-10-03T05:06:50;98153.03;;;8.66;100.00
74708;BME280;63360;50.104;8.074;2022-10-03T05:12:42;98164.44;;;8.70;100.00
74708;BME280;63360;50.104;8.074;2022-10-03T05:15:38;98156.41;;;8.67;100.00
74708;BME280;63360;50.104;8.074;2022-10-03T05:18:27;98164.19;;;8.67;100.00
74708;BME280;63360;50.104;8.074;2022-10-03T05:26:33;98158.09;;;8.86;100.00
74708;BME280;63360;50.104;8.074;2022-10-03T05:29:48;98162.31;;;8.77;100.00
74708;BME280;63360;50.104;8.074;2022-10-03T05:32:29;98168.28;;;8.78;100.00
74708;BME280;63360;50.104;8.074;2022-10-03T05:41:07;98166.44;;;8.78;100.00
74708;BME280;63360;50.104;8.074;2022-10-03T05:46:38;98178.63;;;8.83;100.00
74708;BME280;63360;50.104;8.074;2022-10-03T05:54:41;98187.97;;;8.79;100.00
74708;BME280;63360;50.104;8.074;2022-10-03T06:00:23;98195.22;;;8.82;100.00
74708;BME280;63360;50.104;8.074;2022-10-03T06:06:02;98195.69;;;8.89;100.00
74708;BME280;63360;50.104;8.074;2022-10-03T06:08:53;98201.94;;;8.88;100.00
74708;BME280;63360;50.104;8.074;2022-10-03T06:12:01;98205.53;;;8.92;100.00
74708;BME280;63360;50.104;8.074;2022-10-03T06:14:52;98199.88;;;8.85;100.00
74708;BME280;63360;50.104;8.074;2022-10-03T06:17:41;98216.97;;;8.96;100.00
74708;BME280;63360;50.104;8.074;2022-10-03T06:37:11;98225.41;;;9.50;100.00
74708;BME280;63360;50.104;8.074;2022-10-03T06:45:58;98224.28;;;9.61;100.00
74708;BME280;63360;50.104;8.074;2022-10-03T07:02:46;98226.78;;;9.77;100.00
74708;BME280;63360;50.104;8.074;2022-10-03T07:14:19;98230.31;;;9.86;100.00
74708;BME280;63360;50.104;8.074;2022-10-03T07:17:29;98232.97;;;9.81;100.00
74708;BME280;63360;50.104;8.074;2022-10-03T07:23:00;98237.91;;;10.11;100.00
74708;BME280;63360;50.104;8.074;2022-10-03T07:25:53;98228.84;;;10.03;100.00
74708;BME280;63360;50.104;8.074;2022-10-03T07:32:10;98239.34;;;9.93;100.00
74708;BME280;63360;50.104;8.074;2022-10-03T07:51:01;98264.78;;;9.96;100.00
74708;BME280;63360;50.104;8.074;2022-10-03T08:02:54;98281.44;;;9.95;100.00
74708;BME280;63360;50.104;8.074;2022-10-03T08:13:39;98281.72;;;10.22;100.00
74708;BME280;63360;50.104;8.074;2022-10-03T08:33:19;98294.75;;;10.22;100.00
74708;BME280;63360;50.104;8.074;2022-10-03T08:38:47;98287.31;;;10.40;100.00
74708;BME280;63360;50.104;8.074;2022-10-03T08:41:38;98293.13;;;10.55;100.00
74708;BME280;63360;50.104;8.074;2022-10-03T09:01:33;98295.28;;;10.72;100.00
74708;BME280;63360;50.104;8.074;2022-10-03T09:18:49;98302.91;;;10.87;100.00
74708;BME280;63360;50.104;8.074;2022-10-03T09:24:55;98306.53;;;10.91;100.00
74708;BME280;63360;50.104;8.074;2022-10-03T09:38:01;98309.88;;;10.91;100.00
74708;BME280;63360;50.104;8.074;2022-10-03T10:03:02;98304.25;;;10.84;100.00
74708;BME280;63360;50.104;8.074;2022-10-03T10:06:05;98307.56;;;10.90;100.00
74708;BME280;63360;50.104;8.074;2022-10-03T10:14:18;98297.47;;;10.83;100.00
74708;BME280;63360;50.104;8.074;2022-10-03T10:19:59;98293.00;;;10.89;100.00
74708;BME280;63360;50.104;8.074;2022-10-03T10:32:06;98288.34;;;11.28;93.66
74708;BME280;63360;50.104;8.074;2022-10-03T10:55:58;98286.84;;;11.04;100.00
74708;BME280;63360;50.104;8.074;2022-10-03T11:10:07;98276.97;;;11.01;100.00
74708;BME280;63360;50.104;8.074;2022-10-03T11:18:29;98293.78;;;11.08;100.00
74708;BME280;63360;50.104;8.074;2022-10-03T11:27:27;98291.97;;;11.09;97.24
74708;BME280;63360;50.104;8.074;2022-10-03T11:30:28;98297.25;;;11.04;97.95
74708;BME280;63360;50.104;8.074;2022-10-03T11:38:52;98289.16;;;11.05;98.94
74708;BME280;63360;50.104;8.074;2022-10-03T11:46:51;98300.03;;;11.07;98.06
74708;BME280;63360;50.104;8.074;2022-10-03T11:49:44;98284.72;;;11.06;96.03
74708;BME280;63360;50.104;8.074;2022-10-03T11:52:39;98295.13;;;11.06;91.73
74708;BME280;63360;50.104;8.074;2022-10-03T11:58:26;98287.81;;;11.08;93.21
74708;BME280;63360;50.104;8.074;2022-10-03T12:04:30;98271.91;;;11.09;93.30
74708;BME280;63360;50.104;8.074;2022-10-03T12:06:43;98274.72;;;11.13;94.88
74708;BME280;63360;50.104;8.074;2022-10-03T12:15:03;98268.47;;;11.32;93.77
74708;BME280;63360;50.104;8.074;2022-10-03T12:17:39;98260.44;;;11.29;87.71
74708;BME280;63360;50.104;8.074;2022-10-03T12:20:17;98262.63;;;11.40;92.33
74708;BME280;63360;50.104;8.074;2022-10-03T12:25:26;98256.94;;;11.38;93.05
74708;BME280;63360;50.104;8.074;2022-10-03T12:28:14;98265.94;;;11.46;91.36
74708;BME280;63360;50.104;8.074;2022-10-03T12:30:50;98261.06;;;11.39;91.08
74708;BME280;63360;50.104;8.074;2022-10-03T12:38:30;98252.69;;;11.42;88.09
74708;BME280;63360;50.104;8.074;2022-10-03T12:46:15;98240.03;;;11.36;91.93
74708;BME280;63360;50.104;8.074;2022-10-03T12:48:59;98246.22;;;11.40;91.24
74708;BME280;63360;50.104;8.074;2022-10-03T12:51:50;98246.78;;;11.37;86.07
74708;BME280;63360;50.104;8.074;2022-10-03T12:54:26;98248.13;;;11.34;87.79
74708;BME280;63360;50.104;8.074;2022-10-03T13:00:20;98238.88;;;11.42;90.71
74708;BME280;63360;50.104;8.074;2022-10-03T13:03:17;98242.75;;;11.44;90.92
74708;BME280;63360;50.104;8.074;2022-10-03T13:10:43;98229.72;;;11.44;88.07
74708;BME280;63360;50.104;8.074;2022-10-03T13:13:32;98230.44;;;11.50;87.25
74708;BME280;63360;50.104;8.074;2022-10-03T13:16:19;98235.38;;;11.51;90.54
74708;BME280;63360;50.104;8.074;2022-10-03T13:27:25;98229.22;;;11.61;93.13
74708;BME280;63360;50.104;8.074;2022-10-03T13:30:18;98228.09;;;11.67;94.99
74708;BME280;63360;50.104;8.074;2022-10-03T13:32:51;98229.91;;;11.67;92.63
74708;BME280;63360;50.104;8.074;2022-10-03T13:35:33;98227.69;;;11.92;87.28
74708;BME280;63360;50.104;8.074;2022-10-03T13:38:41;98237.63;;;11.90;89.28
74708;BME280;63360;50.104;8.074;2022-10-03T13:44:33;98234.66;;;11.97;91.18
74708;BME280;63360;50.104;8.074;2022-10-03T13:49:32;98231.34;;;11.91;89.92
74708;BME280;63360;50.104;8.074;2022-10-03T13:52:16;98223.63;;;11.86;92.91
74708;BME280;63360;50.104;8.074;2022-10-03T13:57:22;98222.56;;;12.01;88.18
74708;BME280;63360;50.104;8.074;2022-10-03T14:00:08;98227.50;;;11.89;90.09
74708;BME280;63360;50.104;8.074;2022-10-03T14:03:07;98220.59;;;11.79;91.41
74708;BME280;63360;50.104;8.074;2022-10-03T14:05:48;98214.63;;;11.79;90.34
74708;BME280;63360;50.104;8.074;2022-10-03T14:11:10;98225.94;;;11.88;91.32
74708;BME280;63360;50.104;8.074;2022-10-03T14:17:24;98210.28;;;11.88;91.61
74708;BME280;63360;50.104;8.074;2022-10-03T14:22:25;98218.16;;;12.01;87.66
74708;BME280;63360;50.104;8.074;2022-10-03T14:25:08;98212.44;;;11.99;87.51
74708;BME280;63360;50.104;8.074;2022-10-03T14:30:24;98212.34;;;12.04;88.37
74708;BME280;63360;50.104;8.074;2022-10-03T14:33:23;98217.19;;;11.97;85.45
74708;BME280;63360;50.104;8.074;2022-10-03T14:44:20;98201.03;;;11.95;86.98
74708;BME280;63360;50.104;8.074;2022-10-03T14:46:57;98202.03;;;11.99;86.91
74708;BME280;63360;50.104;8.074;2022-10-03T14:49:28;98195.34;;;11.93;84.39
74708;BME280;63360;50.104;8.074;2022-10-03T14:52:38;98194.28;;;11.94;84.93
74708;BME280;63360;50.104;8.074;2022-10-03T14:55:13;98208.75;;;12.00;84.89
74708;BME280;63360;50.104;8.074;2022-10-03T14:57:46;98209.94;;;11.94;84.24
74708;BME280;63360;50.104;8.074;2022-10-03T15:00:45;98204.91;;;11.98;85.54
74708;BME280;63360;50.104;8.074;2022-10-03T15:08:23;98193.22;;;11.95;83.93
74708;BME280;63360;50.104;8.074;2022-10-03T15:10:53;98187.81;;;11.92;85.23
74708;BME280;63360;50.104;8.074;2022-10-03T15:13:22;98191.19;;;11.92;85.80
74708;BME280;63360;50.104;8.074;2022-10-03T15:15:52;98193.22;;;11.95;84.19
74708;BME280;63360;50.104;8.074;2022-10-03T15:18:22;98187.91;;;11.87;85.37
74708;BME280;63360;50.104;8.074;2022-10-03T15:20:53;98187.59;;;11.88;85.94
74708;BME280;63360;50.104;8.074;2022-10-03T15:23:25;98180.34;;;11.85;90.71
74708;BME280;63360;50.104;8.074;2022-10-03T15:25:55;98179.69;;;11.80;89.83
74708;BME280;63360;50.104;8.074;2022-10-03T15:28:29;98177.06;;;11.80;92.65
74708;BME280;63360;50.104;8.074;2022-10-03T15:31:09;98176.78;;;11.81;92.37
74708;BME280;63360;50.104;8.074;2022-10-03T15:33:41;98184.41;;;11.78;93.35
74708;BME280;63360;50.104;8.074;2022-10-03T15:36:16;98172.31;;;11.68;92.35
74708;BME280;63360;50.104;8.074;2022-10-03T15:38:52;98174.63;;;11.70;94.09
74708;BME280;63360;50.104;8.074;2022-10-03T15:41:38;98183.41;;;11.74;95.85
74708;BME280;63360;50.104;8.074;2022-10-03T15:46:52;98180.41;;;11.67;99.00
74708;BME280;63360;50.104;8.074;2022-10-03T15:49:25;98174.13;;;11.68;99.41
74708;BME280;63360;50.104;8.074;2022-10-03T15:51:54;98178.97;;;11.74;99.38
74708;BME280;63360;50.104;8.074;2022-10-03T15:54:26;98176.38;;;11.74;99.47
74708;BME280;63360;50.104;8.074;2022-10-03T15:56:56;98170.22;;;11.70;100.00
74708;BME280;63360;50.104;8.074;2022-10-03T16:01:53;98175.31;;;11.75;99.49
74708;BME280;63360;50.104;8.074;2022-10-03T16:09:31;98156.09;;;11.71;100.00
74708;BME280;63360;50.104;8.074;2022-10-03T16:18:00;98156.09;;;11.71;100.00
74708;BME280;63360;50.104;8.074;2022-10-03T16:20:38;98163.72;;;11.68;100.00
74708;BME280;63360;50.104;8.074;2022-10-03T16:23:16;98164.28;;;11.65;100.00
74708;BME280;63360;50.104;8.074;2022-10-03T16:26:22;98165.41;;;11.58;100.00
74708;BME280;63360;50.104;8.074;2022-10-03T16:28:56;98162.31;;;11.56;100.00
74708;BME280;63360;50.104;8.074;2022-10-03T16:31:29;98160.38;;;11.48;100.00
74708;BME280;63360;50.104;8.074;2022-10-03T16:34:02;98156.03;;;11.44;100.00
74708;BME280;63360;50.104;8.074;2022-10-03T16:36:31;98154.06;;;11.36;100.00
74708;BME280;63360;50.104;8.074;2022-10-03T16:39:16;98155.28;;;11.25;100.00
74708;BME280;63360;50.104;8.074;2022-10-03T16:41:44;98165.94;;;11.28;100.00
74708;BME280;63360;50.104;8.074;2022-10-03T16:44:26;98162.63;;;11.23;100.00
74708;BME280;63360;50.104;8.074;2022-10-03T16:46:56;98145.38;;;11.08;100.00
74708;BME280;63360;50.104;8.074;2022-10-03T16:49:35;98157.34;;;11.09;100.00
74708;BME280;63360;50.104;8.074;2022-10-03T16:52:34;98139.47;;;11.03;100.00
74708;BME280;63360;50.104;8.074;2022-10-03T16:55:04;98139.06;;;10.95;100.00
74708;BME280;63360;50.104;8.074;2022-10-03T16:57:45;98143.97;;;10.97;100.00
74708;BME280;63360;50.104;8.074;2022-10-03T17:00:19;98137.09;;;10.87;100.00
74708;BME280;63360;50.104;8.074;2022-10-03T17:02:47;98144.78;;;10.79;100.00
74708;BME280;63360;50.104;8.074;2022-10-03T17:05:13;98137.88;;;10.69;100.00
74708;BME280;63360;50.104;8.074;2022-10-03T17:07:43;98135.28;;;10.69;100.00
74708;BME280;63360;50.104;8.074;2022-10-03T17:10:25;98134.28;;;10.65;100.00
74708;BME280;63360;50.104;8.074;2022-10-03T17:12:55;98137.25;;;10.59;100.00
74708;BME280;63360;50.104;8.074;2022-10-03T17:15:33;98147.22;;;10.52;100.00
74708;BME280;63360;50.104;8.074;2022-10-03T17:18:20;98138.22;;;10.44;100.00
74708;BME280;63360;50.104;8.074;2022-10-03T17:20:54;98144.75;;;10.42;100.00
74708;BME280;63360;50.104;8.074;2022-10-03T17:23:38;98139.25;;;10.24;100.00
74708;BME280;63360;50.104;8.074;2022-10-03T17:26:26;98148.88;;;10.24;100.00
74708;BME280;63360;50.104;8.074;2022-10-03T17:31:54;98147.78;;;10.01;100.00
74708;BME280;63360;50.104;8.074;2022-10-03T17:34:38;98141.31;;;9.99;100.00
74708;BME280;63360;50.104;8.074;2022-10-03T17:37:33;98145.53;;;9.95;100.00
74708;BME280;63360;50.104;8.074;2022-10-03T17:40:27;98146.91;;;9.87;100.00
74708;BME280;63360;50.104;8.074;2022-10-03T17:43:01;98141.53;;;9.79;100.00
74708;BME280;63360;50.104;8.074;2022-10-03T17:45:37;98131.25;;;9.68;100.00
74708;BME280;63360;50.104;8.074;2022-10-03T17:48:24;98140.06;;;9.67;100.00
74708;BME280;63360;50.104;8.074;2022-10-03T17:51:31;98134.44;;;9.60;100.00
74708;BME280;63360;50.104;8.074;2022-10-03T17:54:02;98127.50;;;9.51;100.00
74708;BME280;63360;50.104;8.074;2022-10-03T17:56:32;98137.44;;;9.44;100.00
74708;BME280;63360;50.104;8.074;2022-10-03T17:59:10;98128.97;;;9.33;100.00
74708;BME280;63360;50.104;8.074;2022-10-03T18:01:41;98127.50;;;9.22;100.00
74708;BME280;63360;50.104;8.074;2022-10-03T18:04:39;98134.53;;;9.17;100.00
74708;BME280;63360;50.104;8.074;2022-10-03T18:07:11;98122.44;;;9.07;100.00
74708;BME280;63360;50.104;8.074;2022-10-03T18:09:49;98115.19;;;9.04;100.00
74708;BME280;63360;50.104;8.074;2022-10-03T18:12:22;98114.19;;;8.95;100.00
74708;BME280;63360;50.104;8.074;2022-10-03T18:15:20;98130.78;;;8.99;100.00
74708;BME280;63360;50.104;8.074;2022-10-03T18:20:47;98129.13;;;8.74;100.00
74708;BME280;63360;50.104;8.074;2022-10-03T18:23:19;98115.19;;;8.60;100.00
74708;BME280;63360;50.104;8.074;2022-10-03T18:26:27;98131.25;;;8.67;100.00
74708;BME280;63360;50.104;8.074;2022-10-03T18:29:04;98118.06;;;8.59;100.00
74708;BME280;63360;50.104;8.074;2022-10-03T18:31:41;98135.72;;;8.57;100.00
74708;BME280;63360;50.104;8.074;2022-10-03T18:34:17;98134.75;;;8.42;100.00
74708;BME280;63360;50.104;8.074;2022-10-03T18:36:50;98117.44;;;8.28;100.00
74708;BME280;63360;50.104;8.074;2022-10-03T18:39:30;98116.91;;;8.26;100.00
74708;BME280;63360;50.104;8.074;2022-10-03T18:42:00;98107.59;;;8.20;100.00
74708;BME280;63360;50.104;8.074;2022-10-03T18:44:29;98124.44;;;8.17;100.00
74708;BME280;63360;50.104;8.074;2022-10-03T18:55:19;98116.78;;;7.92;100.00
74708;BME280;63360;50.104;8.074;2022-10-03T18:58:00;98130.22;;;7.94;100.00
74708;BME280;63360;50.104;8.074;2022-10-03T19:00:32;98123.00;;;7.86;100.00
74708;BME280;63360;50.104;8.074;2022-10-03T19:03:14;98133.88;;;7.83;100.00
74708;BME280;63360;50.104;8.074;2022-10-03T19:05:57;98119.97;;;7.69;100.00
74708;BME280;63360;50.104;8.074;2022-10-03T19:08:35;98128.47;;;7.69;100.00
74708;BME280;63360;50.104;8.074;2022-10-03T19:19:27;98120.72;;;7.59;100.00
74708;BME280;63360;50.104;8.074;2022-10-03T19:22:03;98110.66;;;7.53;100.00
74708;BME280;63360;50.104;8.074;2022-10-03T19:24:31;98121.03;;;7.48;100.00
74708;BME280;63360;50.104;8.074;2022-10-03T19:27:23;98103.44;;;7.40;100.00
74708;BME280;63360;50.104;8.074;2022-10-03T19:29:55;98108.31;;;7.46;100.00
74708;BME280;63360;50.104;8.074;2022-10-03T19:32:31;98112.72;;;7.41;100.00
74708;BME280;63360;50.104;8.074;2022-10-03T19:35:02;98099.81;;;7.30;100.00
74708;BME280;63360;50.104;8.074;2022-10-03T19:37:39;98104.47;;;7.33;100.00
74708;BME280;63360;50.104;8.074;2022-10-03T19:40:13;98107.28;;;7.32;100.00
74708;BME280;63360;50.104;8.074;2022-10-03T19:42:45;98102.13;;;7.22;100.00
74708;BME280;63360;50.104;8.074;2022-10-03T19:45:14;98109.66;;;7.28;100.00
74708;BME280;63360;50.104;8.074;2022-10-03T19:47:50;98106.81;;;7.20;100.00
74708;BME280;63360;50.104;8.074;2022-10-03T19:50:27;98107.81;;;7.14;100.00
74708;BME280;63360;50.104;8.074;2022-10-03T19:52:54;98109.13;;;7.11;100.00
74708;BME280;63360;50.104;8.074;2022-10-03T19:55:33;98107.84;;;7.09;100.00
74708;BME280;63360;50.104;8.074;2022-10-03T20:00:35;98100.84;;;6.99;100.00
74708;BME280;63360;50.104;8.074;2022-10-03T20:03:13;98103.69;;;7.03;100.00
74708;BME280;63360;50.104;8.074;2022-10-03T20:06:06;98099.56;;;6.97;100.00
74708;BME280;63360;50.104;8.074;2022-10-03T20:08:45;98092.84;;;6.91;100.00
74708;BME280;63360;50.104;8.074;2022-10-03T20:14:05;98086.88;;;6.80;100.00
74708;BME280;63360;50.104;8.074;2022-10-03T20:16:40;98083.78;;;6.83;100.00
74708;BME280;63360;50.104;8.074;2022-10-03T20:19:10;98085.06;;;6.76;100.00
74708;BME280;63360;50.104;8.074;2022-10-03T20:21:38;98087.38;;;6.72;100.00
74708;BME280;63360;50.104;8.074;2022-10-03T20:24:20;98084.28;;;6.75;100.00
74708;BME280;63360;50.104;8.074;2022-10-03T20:29:51;98076.03;;;6.73;100.00
74708;BME280;63360;50.104;8.074;2022-10-03T20:32:24;98067.47;;;6.67;100.00
74708;BME280;63360;50.104;8.074;2022-10-03T20:34:53;98075.97;;;6.63;100.00
74708;BME280;63360;50.104;8.074;2022-10-03T20:40:24;98081.41;;;6.56;100.00
74708;BME280;63360;50.104;8.074;2022-10-03T20:43:01;98090.47;;;6.54;100.00
74708;BME280;63360;50.104;8.074;2022-10-03T20:45:32;98075.94;;;6.38;100.00
74708;BME280;63360;50.104;8.074;2022-10-03T20:48:05;98083.97;;;6.41;100.00
74708;BME280;63360;50.104;8.074;2022-10-03T20:50:42;98080.06;;;6.39;100.00
74708;BME280;63360;50.104;8.074;2022-10-03T20:53:23;98081.66;;;6.45;100.00
74708;BME280;63360;50.104;8.074;2022-10-03T20:56:01;98090.19;;;6.45;100.00
74708;BME280;63360;50.104;8.074;2022-10-03T20:58:34;98079.84;;;6.40;100.00
74708;BME280;63360;50.104;8.074;2022-10-03T21:01:09;98096.38;;;6.44;100.00
74708;BME280;63360;50.104;8.074;2022-10-03T21:04:14;98100.00;;;6.38;100.00
74708;BME280;63360;50.104;8.074;2022-10-03T21:06:53;98088.09;;;6.32;100.00
74708;BME280;63360;50.104;8.074;2022-10-03T21:09:38;98082.13;;;6.37;100.00
74708;BME280;63360;50.104;8.074;2022-10-03T21:12:15;98083.44;;;6.34;100.00
74708;BME280;63360;50.104;8.074;2022-10-03T21:14:47;98071.28;;;6.25;100.00
74708;BME280;63360;50.104;8.074;2022-10-03T21:17:15;98081.84;;;6.28;100.00
74708;BME280;63360;50.104;8.074;2022-10-03T21:19:50;98081.63;;;6.30;100.00
74708;BME280;63360;50.104;8.074;2022-10-03T21:22:21;98075.88;;;6.18;100.00
74708;BME280;63360;50.104;8.074;2022-10-03T21:25:01;98083.59;;;6.07;100.00
74708;BME280;63360;50.104;8.074;2022-10-03T21:27:30;98077.41;;;6.08;100.00
74708;BME280;63360;50.104;8.074;2022-10-03T21:30:04;98079.22;;;6.08;100.00
74708;BME280;63360;50.104;8.074;2022-10-03T21:35:23;98086.75;;;6.15;100.00
74708;BME280;63360;50.104;8.074;2022-10-03T21:43:52;98087.22;;;6.06;100.00
74708;BME280;63360;50.104;8.074;2022-10-03T21:46:48;98075.63;;;6.09;100.00
74708;BME280;63360;50.104;8.074;2022-10-03T21:49:28;98074.84;;;6.08;100.00
74708;BME280;63360;50.104;8.074;2022-10-03T22:00:11;98070.38;;;5.94;100.00
74708;BME280;63360;50.104;8.074;2022-10-03T22:03:15;98076.84;;;5.96;100.00
74708;BME280;63360;50.104;8.074;2022-10-03T22:06:11;98066.78;;;5.95;100.00
74708;BME280;63360;50.104;8.074;2022-10-03T22:08:43;98060.28;;;5.87;100.00
74708;BME280;63360;50.104;8.074;2022-10-03T22:11:40;98045.25;;;5.74;100.00
74708;BME280;63360;50.104;8.074;2022-10-03T22:14:43;98048.31;;;5.71;100.00
74708;BME280;63360;50.104;8.074;2022-10-03T22:17:34;98037.00;;;5.77;100.00
74708;BME280;63360;50.104;8.074;2022-10-03T22:20:11;98047.63;;;5.86;100.00
74708;BME280;63360;50.104;8.074;2022-10-03T22:22:53;98047.56;;;5.76;100.00
74708;BME280;63360;50.104;8.074;2022-10-03T22:28:55;98041.84;;;5.69;100.00
74708;BME280;63360;50.104;8.074;2022-10-03T22:31:47;98035.41;;;5.71;100.00
74708;BME280;63360;50.104;8.074;2022-10-03T22:34:42;98045.47;;;5.73;100.00
74708;BME280;63360;50.104;8.074;2022-10-03T22:37:11;98036.44;;;5.70;100.00
74708;BME280;63360;50.104;8.074;2022-10-03T22:39:39;98027.13;;;5.64;100.00
74708;BME280;63360;50.104;8.074;2022-10-03T22:42:07;98022.78;;;5.75;100.00
74708;BME280;63360;50.104;8.074;2022-10-03T22:44:42;98026.09;;;5.65;100.00
74708;BME280;63360;50.104;8.074;2022-10-03T22:47:12;98021.69;;;5.66;100.00
74708;BME280;63360;50.104;8.074;2022-10-03T22:49:43;98025.31;;;5.70;100.00
74708;BME280;63360;50.104;8.074;2022-10-03T22:52:34;98000.44;;;5.48;100.00
74708;BME280;63360;50.104;8.074;2022-10-03T22:55:03;98019.81;;;5.51;100.00
74708;BME280;63360;50.104;8.074;2022-10-03T22:57:31;98007.44;;;5.48;100.00
74708;BME280;63360;50.104;8.074;2022-10-03T23:00:05;98012.31;;;5.44;100.00
74708;BME280;63360;50.104;8.074;2022-10-03T23:02:47;98015.91;;;5.43;100.00
74708;BME280;63360;50.104;8.074;2022-10-03T23:05:37;98006.91;;;5.51;100.00
74708;BME280;63360;50.104;8.074;2022-10-03T23:08:25;97996.56;;;5.46;100.00
74708;BME280;63360;50.104;8.074;2022-10-03T23:11:01;97990.41;;;5.47;100.00
74708;BME280;63360;50.104;8.074;2022-10-03T23:13:39;98007.72;;;5.57;100.00
74708;BME280;63360;50.104;8.074;2022-10-03T23:16:17;98004.63;;;5.55;100.00
74708;BME280;63360;50.104;8.074;2022-10-03T23:21:43;98000.19;;;5.40;100.00
74708;BME280;63360;50.104;8.074;2022-10-03T23:24:30;97995.03;;;5.40;100.00